KCPS

St Louis Downtown Airport

Cahokia/St Louis, Illinois, USA
METAR KCPS 150253Z VRB03KT 10SM SCT060 BKN080 24/22 A2994 RMK AO2 SLP134 T02440217 53004
Observed Flight Rules
Aug-15 @ 02:53 UTC (42 minutes ago) Visual Flight Rules
Wind Visibility Clouds
Variable at 3 knots 10 miles
  • Scattered at 6,000' AGL
  • Broken at 8,000' AGL
Temperatures Readings
Current 24°C / 75°F
Dewpoint 22°C / 72°F
Humidity 89%
Altimeter 29.94" Hg
Pressure 1013.4 hPa
Elevation 126
METAR KCPS 150253Z VRB03KT 10SM SCT060 BKN080 24/22 A2994 RMK AO2 SLP134 T02440217 53004
Observed Flight Rules
Aug-15 @ 02:53 UTC
(42 minutes ago)
VFR
Wind Visibility
Variable at 3 knots 10 miles
Clouds
  • Scattered at 6,000' AGL
  • Broken at 8,000' AGL
Temperature Dewpoint
24°C / 75°F 22°C / 72°F
Humidity Altimeter Pressure
89% 29.94" Hg 1013.4 hPa